Sir Richard — WDJ7255 — position and weather

sailwx.info

Track history (hours):
 
Tides and Currents Weather Stations Pressure Air Temp Water Temp Dewpoint Dewpoint Depression Visibility Wind Speed Wind Dir Waves Ship Positions

Sir Richard

Owner: CANTON MARINE TOWING CO., CANTON, MO. More information available from US FCC via Universal Licensing System and Coast Guard Vessel Documentation Center.

Last reported at 2018-Feb-22 13:02 UTC. Time now 2018-Feb-22 15:15 UTC.
Position N 39°12' W 090°43'.

; draft 3 m.

Type: Towing. MMSI: 368004920.

Date/timePositionNaut miles runAvg speedWind from/ knotsBaromVisibWave heightAir tempDewpointWater temp
2018-Feb-22 13:02N 39°12' W 090°43'0 3.0
2018-Feb-22 13:00N 39°11' W 090°43'2 2.6
2018-Feb-22 12:25N 39°10' W 090°43'1 2.7
2018-Feb-22 12:01N 39°09' W 090°43'1 2.6
2018-Feb-22 11:30N 39°08' W 090°42'1 2.2
2018-Feb-22 11:01N 39°07' W 090°41'2 2.9
2018-Feb-22 10:29N 39°05' W 090°41'1 2.8
2018-Feb-22 10:01N 39°04' W 090°42'1 2.6
2018-Feb-22 09:31N 39°03' W 090°43'1 2.5
2018-Feb-22 09:01N 39°02' W 090°42'1 2.8
2018-Feb-22 08:30N 39°01' W 090°42'1 1.2
2018-Feb-22 08:01N 39°00' W 090°41'1 1.1
2018-Feb-22 07:30N 38°60' W 090°41'1 2.9
2018-Feb-22 07:01N 38°58' W 090°41'1 3.0
2018-Feb-22 06:31N 38°57' W 090°40'1 2.9
2018-Feb-22 06:01N 38°55' W 090°40'1 2.9
2018-Feb-22 05:30N 38°54' W 090°38'1 2.9
2018-Feb-22 05:01N 38°53' W 090°37'1 2.9
2018-Feb-22 04:31N 38°52' W 090°36'1 2.9
2018-Feb-22 04:01N 38°52' W 090°34'2 3.1
2018-Feb-22 03:31N 38°53' W 090°32'2 3.0
2018-Feb-22 03:00N 38°54' W 090°31'1 3.0
2018-Feb-22 02:30N 38°55' W 090°30'1 2.9
2018-Feb-22 02:01N 38°56' W 090°29'2 3.0
2018-Feb-22 01:31N 38°57' W 090°28'2 3.0
2018-Feb-22 01:00N 38°58' W 090°26'2 3.1
2018-Feb-22 00:30N 38°58' W 090°24'2 3.3
2018-Feb-22 00:01N 38°57' W 090°22'2 3.4
2018-Feb-21 23:30N 38°56' W 090°20'1 2.8
2018-Feb-21 23:01N 38°55' W 090°19'2 3.6
2018-Feb-21 22:30N 38°55' W 090°16'2 3.6
2018-Feb-21 22:01N 38°55' W 090°14'2 3.4
2018-Feb-21 21:30N 38°54' W 090°12'2 3.6
2018-Feb-21 21:00N 38°53' W 090°10'1 2.7
2018-Feb-21 20:31N 38°52' W 090°09'1 1.5
2018-Feb-21 20:01N 38°52' W 090°08'0 1.0
2018-Feb-21 19:31N 38°52' W 090°08'0 0.0
2018-Feb-21 19:00N 38°52' W 090°08'1 1.9
2018-Feb-21 18:31N 38°51' W 090°07'1 2.1
2018-Feb-21 17:59N 38°50' W 090°07'1 2.7
2018-Feb-21 17:30N 38°49' W 090°07'2 3.3
2018-Feb-21 17:00N 38°47' W 090°07'1 1.3
2018-Feb-21 16:30N 38°46' W 090°08'2 3.1
2018-Feb-21 16:00N 38°45' W 090°09'2 4.1
2018-Feb-21 15:30N 38°43' W 090°10'2 2.3
2018-Feb-21 14:50N 38°42' W 090°11'1 1.8
2018-Feb-21 14:31N 38°41' W 090°11'2 3.2
2018-Feb-21 14:00N 38°40' W 090°11'1 2.2
2018-Feb-21 13:30N 38°39' W 090°11'1 2.4
2018-Feb-21 13:01N 38°38' W 090°11'1 2.5
2018-Feb-21 12:29N 38°36' W 090°11'1 0.7
2018-Feb-21 11:02N 38°35' W 090°12'0 0.1
2018-Feb-21 10:55N 38°35' W 090°12'0 0.0
2018-Feb-21 10:25N 38°35' W 090°12'0 0.0
2018-Feb-21 09:58N 38°35' W 090°12'0 0.0
2018-Feb-21 03:06N 38°36' W 090°12'0 0.4
2018-Feb-21 02:39N 38°36' W 090°12'0 2.3
2018-Feb-21 02:29N 38°36' W 090°12'3 7.2
2018-Feb-21 02:00N 38°39' W 090°11'2 4.8
2018-Feb-21 01:31N 38°42' W 090°11'1 1.5
2018-Feb-21 01:00N 38°42' W 090°11'2 4.2
2018-Feb-21 00:31N 38°44' W 090°09'2 3.6
2018-Feb-20 23:59N 38°46' W 090°08'2 3.8
2018-Feb-20 23:30N 38°48' W 090°07'3 6.2
2018-Feb-20 23:01N 38°51' W 090°06'2 4.9
2018-Feb-20 22:31N 38°52' W 090°09'0 0.3
2018-Feb-20 21:57N 38°52' W 090°09'0 0.6
2018-Feb-20 21:31N 38°52' W 090°09'0 0.0
2018-Feb-20 21:01N 38°52' W 090°09'0 0.4
2018-Feb-20 20:31N 38°52' W 090°09'0 0.0
2018-Feb-20 20:01N 38°52' W 090°09'0 0.6
2018-Feb-20 19:30N 38°52' W 090°10'2 4.6
2018-Feb-20 19:00N 38°54' W 090°12'3 5.1
2018-Feb-20 18:31N 38°55' W 090°15'3 5.0
2018-Feb-20 18:01N 38°55' W 090°18'2 4.8
2018-Feb-20 17:31N 38°56' W 090°21'3 5.2
2018-Feb-20 17:01N 38°58' W 090°24'3 5.0
2018-Feb-20 16:30N 38°57' W 090°27'2 4.8
2018-Feb-20 16:01N 38°56' W 090°29'3 5.1
2018-Feb-20 15:31N 38°54' W 090°31'3 5.1
2018-Feb-20 15:01N 38°52' W 090°33'3 5.2
2018-Feb-20 14:30N 38°52' W 090°37'3 5.3
2018-Feb-20 14:00N 38°55' W 090°39'3 5.4
2018-Feb-20 13:30N 38°57' W 090°40'3 5.4
2018-Feb-20 13:00N 38°60' W 090°41'1 1.4
2018-Feb-20 12:30N 39°00' W 090°41'1 2.6
2018-Feb-20 12:01N 39°01' W 090°42'2 4.8
2018-Feb-20 11:30N 39°04' W 090°42'3 4.2
2018-Feb-20 10:53N 39°06' W 090°41'2 5.4
2018-Feb-20 10:31N 39°08' W 090°42'2 0.0
2018-Feb-19 00:29N 39°10' W 090°43'2 4.9
2018-Feb-19 00:00N 39°07' W 090°42'3 4.9
2018-Feb-18 23:28N 39°05' W 090°41'2 4.0
2018-Feb-18 23:00N 39°03' W 090°43'3 5.6
2018-Feb-18 22:31N 39°01' W 090°42'1 2.5
2018-Feb-18 22:01N 38°60' W 090°41'2 4.8
2018-Feb-18 21:30N 38°57' W 090°40'2 4.6
2018-Feb-18 21:01N 38°55' W 090°39'2 4.4
2018-Feb-18 20:31N 38°53' W 090°38'2 4.4
2018-Feb-18 20:00N 38°52' W 090°35'2 4.7
2018-Feb-18 19:31N 38°53' W 090°32'2 4.7
2018-Feb-18 19:00N 38°55' W 090°31'2 4.7
2018-Feb-18 18:30N 38°56' W 090°29'2 4.2
2018-Feb-18 18:01N 38°57' W 090°27'2 4.7
2018-Feb-18 17:30N 38°58' W 090°24'2 5.0
2018-Feb-18 17:01N 38°57' W 090°21'3 5.0
2018-Feb-18 16:31N 38°55' W 090°18'3 5.2
2018-Feb-18 16:01N 38°55' W 090°15'3 5.2
2018-Feb-18 15:30N 38°54' W 090°12'3 5.2
2018-Feb-18 15:01N 38°52' W 090°09'1 1.3
2018-Feb-18 14:31N 38°52' W 090°09'0 0.9
2018-Feb-18 14:01N 38°52' W 090°08'0 0.0
2018-Feb-18 13:30N 38°52' W 090°08'0 0.0
2018-Feb-18 13:00N 38°52' W 090°08'0 0.0
2018-Feb-18 12:31N 38°52' W 090°08'0 0.0
2018-Feb-18 12:01N 38°52' W 090°08'0 0.0
2018-Feb-18 11:30N 38°52' W 090°08'0 0.0
2018-Feb-18 11:01N 38°52' W 090°08'0 0.0
2018-Feb-18 10:30N 38°52' W 090°08'0 0.0
2018-Feb-18 10:01N 38°52' W 090°08'0 0.0
2018-Feb-18 09:31N 38°52' W 090°08'0 0.0
2018-Feb-18 09:00N 38°52' W 090°08'0 0.0
2018-Feb-18 08:31N 38°52' W 090°08'0 0.0
2018-Feb-18 08:00N 38°52' W 090°08'0 0.3
2018-Feb-18 07:31N 38°52' W 090°08'2 4.2
2018-Feb-18 07:01N 38°50' W 090°07'3 5.0
2018-Feb-18 06:30N 38°48' W 090°07'3 6.0
2018-Feb-18 06:00N 38°45' W 090°09'2 4.9
2018-Feb-18 05:31N 38°43' W 090°10'1 1.3
2018-Feb-18 05:00N 38°42' W 090°11'1 1.6
2018-Feb-18 04:30N 38°41' W 090°11'2 4.6
2018-Feb-18 04:01N 38°39' W 090°11'2 4.1
2018-Feb-18 03:30N 38°37' W 090°11'6 1.7
2018-Feb-18 00:15N 38°33' W 090°15'3 6.8
2018-Feb-17 23:48N 38°35' W 090°13'1 2.7
2018-Feb-17 23:30N 38°36' W 090°12'0 0.1
2018-Feb-17 23:00N 38°36' W 090°12'2 5.0
2018-Feb-17 22:30N 38°38' W 090°11'3 6.5
2018-Feb-17 22:01N 38°41' W 090°11'1 2.0
2018-Feb-17 21:25N 38°42' W 090°11'1 3.0
2018-Feb-17 21:00N 38°43' W 090°10'2 4.5
2018-Feb-17 20:31N 38°45' W 090°09'2 3.8
2018-Feb-17 20:01N 38°47' W 090°08'2 4.9
2018-Feb-17 19:31N 38°49' W 090°07'2 4.7
2018-Feb-17 19:00N 38°51' W 090°08'1 2.4
2018-Feb-17 18:31N 38°52' W 090°09'0 0.2
2018-Feb-17 18:00N 38°52' W 090°09'0 0.4
2018-Feb-17 17:31N 38°52' W 090°09'0 0.5
2018-Feb-17 17:00N 38°52' W 090°09'2 3.0
2018-Feb-17 16:31N 38°53' W 090°11'0 0.0
2018-Feb-17 16:01N 38°53' W 090°11'0 0.0
2018-Feb-17 15:31N 38°53' W 090°11'0 0.0
2018-Feb-17 15:01N 38°53' W 090°11'0 0.1
2018-Feb-17 14:31N 38°53' W 090°11'2 3.4
2018-Feb-17 14:01N 38°54' W 090°13'2 4.9
2018-Feb-17 13:31N 38°55' W 090°15'2 4.9
2018-Feb-17 13:01N 38°55' W 090°19'2 4.7
2018-Feb-17 12:31N 38°57' W 090°21'3 5.0
2018-Feb-17 12:01N 38°58' W 090°24'2 4.6
2018-Feb-17 11:31N 38°57' W 090°27'2 4.4
2018-Feb-17 11:01N 38°56' W 090°29'3 5.8
2018-Feb-17 10:31N 38°54' W 090°31'3 5.6
2018-Feb-17 10:00N 38°52' W 090°34'3 5.4
2018-Feb-17 09:31N 38°53' W 090°38'3 6.1
2018-Feb-17 09:01N 38°56' W 090°40'3 6.4
2018-Feb-17 08:31N 38°59' W 090°41'2 3.1
2018-Feb-17 08:01N 39°00' W 090°41'0 0.7
2018-Feb-17 07:30N 39°01' W 090°42'2 4.4
2018-Feb-17 07:01N 39°03' W 090°43'2 4.8
2018-Feb-17 06:30N 39°05' W 090°41'2 4.7
2018-Feb-17 06:00N 39°07' W 090°41'3 5.1
2018-Feb-17 05:31N 39°09' W 090°43'  
2018-Feb-14 18:26N 39°10' W 090°43'2 4.0
2018-Feb-14 18:00N 39°08' W 090°42'2 3.4
2018-Feb-14 17:28N 39°06' W 090°41'1 2.5
2018-Feb-14 17:00N 39°05' W 090°41'2 4.0
2018-Feb-14 16:31N 39°04' W 090°43'2 4.0
2018-Feb-14 16:01N 39°02' W 090°42'2 3.3
2018-Feb-14 15:31N 39°00' W 090°41'1 2.9
2018-Feb-14 15:00N 38°59' W 090°40'2 4.8
2018-Feb-14 14:30N 38°56' W 090°40'2 4.5
2018-Feb-14 14:00N 38°55' W 090°38'2 3.8
2018-Feb-14 13:31N 38°53' W 090°37'0 0.1
2018-Feb-14 13:01N 38°53' W 090°37'0 0.0
2018-Feb-14 12:31N 38°53' W 090°37'0 0.0
2018-Feb-14 12:01N 38°53' W 090°37'0 0.0
2018-Feb-14 11:31N 38°53' W 090°37'1 1.8
2018-Feb-14 11:01N 38°52' W 090°37'2 4.7
2018-Feb-14 10:31N 38°52' W 090°34'2 4.7
2018-Feb-14 10:00N 38°54' W 090°31'2 4.9
2018-Feb-14 09:31N 38°56' W 090°30'3 4.9
2018-Feb-14 09:00N 38°57' W 090°27'3 5.2
2018-Feb-14 08:31N 38°58' W 090°24'3 5.5
2018-Feb-14 08:00N 38°56' W 090°21'3 5.4
2018-Feb-14 07:31N 38°55' W 090°18'3 5.4
2018-Feb-14 07:00N 38°55' W 090°14'3 5.4
2018-Feb-14 06:30N 38°53' W 090°11'2 4.3
2018-Feb-14 06:01N 38°52' W 090°09'0 1.0
2018-Feb-14 05:31N 38°52' W 090°08'0 1.0
2018-Feb-14 05:01N 38°52' W 090°08'0 0.0
2018-Feb-14 04:31N 38°52' W 090°08'0 0.0
2018-Feb-14 04:01N 38°52' W 090°08'0 0.0
2018-Feb-14 03:31N 38°52' W 090°08'2 3.7
2018-Feb-14 02:59N 38°50' W 090°06'2 4.7
2018-Feb-14 02:31N 38°48' W 090°07'2 4.6
2018-Feb-14 01:59N 38°46' W 090°08'2 4.3
2018-Feb-14 01:30N 38°44' W 090°10'2 3.9
2018-Feb-14 01:01N 38°42' W 090°11'1 1.2
2018-Feb-14 00:31N 38°42' W 090°11'2 4.2
2018-Feb-14 00:01N 38°40' W 090°11'0 0.1
2018-Feb-13 23:26N 38°40' W 090°11'1 1.6
2018-Feb-13 23:00N 38°39' W 090°11'2 2.7
2018-Feb-13 22:23N 38°37' W 090°11'2 0.5
2018-Feb-13 17:53N 38°35' W 090°12'0 0.0
2018-Feb-13 17:18N 38°35' W 090°12'0 0.0
2018-Feb-13 16:52N 38°35' W 090°12'0 0.0
2018-Feb-13 16:24N 38°35' W 090°12'5 0.9
2018-Feb-13 10:38N 38°31' W 090°16'2 3.2
2018-Feb-13 10:10N 38°33' W 090°15'3 8.3
2018-Feb-13 09:46N 38°35' W 090°12'2 7.2
2018-Feb-13 09:28N 38°37' W 090°11'0 0.2
2018-Feb-13 08:55N 38°37' W 090°11'2 1.6
2018-Feb-13 07:57N 38°39' W 090°11'0 0.0
2018-Feb-13 07:04N 38°39' W 090°11'0 0.0
2018-Feb-13 07:00N 38°39' W 090°11'0 0.1
2018-Feb-13 06:26N 38°39' W 090°11'1 3.4
2018-Feb-13 06:01N 38°40' W 090°11'2 4.0
2018-Feb-13 05:30N 38°42' W 090°11'1 1.9
2018-Feb-13 05:00N 38°43' W 090°10'2 4.3
2018-Feb-13 04:31N 38°45' W 090°09'2 4.1
2018-Feb-13 04:00N 38°46' W 090°08'2 4.9
2018-Feb-13 03:31N 38°49' W 090°07'3 5.1
2018-Feb-13 03:01N 38°51' W 090°07'2 3.4
2018-Feb-13 02:30N 38°52' W 090°09'1 2.9
2018-Feb-13 02:00N 38°53' W 090°11'1 1.2
2018-Feb-13 01:31N 38°53' W 090°10'1 1.4
2018-Feb-13 01:01N 38°52' W 090°09'0 0.2
2018-Feb-13 00:30N 38°52' W 090°09'2 3.6
2018-Feb-13 00:01N 38°53' W 090°11'0 0.0
2018-Feb-12 23:31N 38°53' W 090°11'0 0.0
2018-Feb-12 23:01N 38°53' W 090°11'0 0.0
2018-Feb-12 22:31N 38°53' W 090°11'2 3.1
2018-Feb-12 22:01N 38°54' W 090°13'3 5.7
2018-Feb-12 21:31N 38°55' W 090°16'3 5.5
2018-Feb-12 21:00N 38°56' W 090°19'3 5.7
2018-Feb-12 20:31N 38°57' W 090°22'3 5.7
2018-Feb-12 20:00N 38°58' W 090°26'2 4.8
2018-Feb-12 19:31N 38°57' W 090°29'3 5.0
2018-Feb-12 19:01N 38°55' W 090°31'3 5.1
2018-Feb-12 18:31N 38°52' W 090°33'2 4.8
2018-Feb-12 18:00N 38°52' W 090°36'2 4.8
2018-Feb-12 17:30N 38°54' W 090°38'3 5.1
2018-Feb-12 17:00N 38°56' W 090°40'3 5.7
2018-Feb-12 16:30N 38°59' W 090°40'2 3.4
2018-Feb-12 16:01N 39°00' W 090°41'1 2.9
2018-Feb-12 15:30N 39°02' W 090°42'2 4.8
2018-Feb-12 15:00N 39°04' W 090°42'2 2.1
2018-Feb-12 14:06N 39°05' W 090°41'0 0.7
2018-Feb-12 13:58N 39°05' W 090°41'1 2.3
2018-Feb-12 13:31N 39°06' W 090°41'  
Track history (hours):
 
Tides and Currents Weather Stations Pressure Air Temp Water Temp Dewpoint Dewpoint Depression Visibility Wind Speed Wind Dir Waves Ship Positions

Sir Richard

Owner: CANTON MARINE TOWING CO., CANTON, MO. More information available from US FCC via Universal Licensing System and Coast Guard Vessel Documentation Center.

Last reported at 2018-Feb-22 13:02 UTC. Time now 2018-Feb-22 15:15 UTC.
Position N 39°12' W 090°43'.

; draft 3 m.

Type: Towing. MMSI: 368004920.

Date/timePositionNaut miles runAvg speedWind from/ knotsBaromVisibWave heightAir tempDewpointWater temp
2018-Feb-22 13:02N 39°12' W 090°43'0 3.0
2018-Feb-22 13:00N 39°11' W 090°43'2 2.6
2018-Feb-22 12:25N 39°10' W 090°43'1 2.7
2018-Feb-22 12:01N 39°09' W 090°43'1 2.6
2018-Feb-22 11:30N 39°08' W 090°42'1 2.2
2018-Feb-22 11:01N 39°07' W 090°41'2 2.9
2018-Feb-22 10:29N 39°05' W 090°41'1 2.8
2018-Feb-22 10:01N 39°04' W 090°42'1 2.6
2018-Feb-22 09:31N 39°03' W 090°43'1 2.5
2018-Feb-22 09:01N 39°02' W 090°42'1 2.8
2018-Feb-22 08:30N 39°01' W 090°42'1 1.2
2018-Feb-22 08:01N 39°00' W 090°41'1 1.1
2018-Feb-22 07:30N 38°60' W 090°41'1 2.9
2018-Feb-22 07:01N 38°58' W 090°41'1 3.0
2018-Feb-22 06:31N 38°57' W 090°40'1 2.9
2018-Feb-22 06:01N 38°55' W 090°40'1 2.9
2018-Feb-22 05:30N 38°54' W 090°38'1 2.9
2018-Feb-22 05:01N 38°53' W 090°37'1 2.9
2018-Feb-22 04:31N 38°52' W 090°36'1 2.9
2018-Feb-22 04:01N 38°52' W 090°34'2 3.1
2018-Feb-22 03:31N 38°53' W 090°32'2 3.0
2018-Feb-22 03:00N 38°54' W 090°31'1 3.0
2018-Feb-22 02:30N 38°55' W 090°30'1 2.9
2018-Feb-22 02:01N 38°56' W 090°29'2 3.0
2018-Feb-22 01:31N 38°57' W 090°28'2 3.0
2018-Feb-22 01:00N 38°58' W 090°26'2 3.1
2018-Feb-22 00:30N 38°58' W 090°24'2 3.3
2018-Feb-22 00:01N 38°57' W 090°22'2 3.4
2018-Feb-21 23:30N 38°56' W 090°20'1 2.8
2018-Feb-21 23:01N 38°55' W 090°19'2 3.6
2018-Feb-21 22:30N 38°55' W 090°16'2 3.6
2018-Feb-21 22:01N 38°55' W 090°14'2 3.4
2018-Feb-21 21:30N 38°54' W 090°12'2 3.6
2018-Feb-21 21:00N 38°53' W 090°10'1 2.7
2018-Feb-21 20:31N 38°52' W 090°09'1 1.5
2018-Feb-21 20:01N 38°52' W 090°08'0 1.0
2018-Feb-21 19:31N 38°52' W 090°08'0 0.0
2018-Feb-21 19:00N 38°52' W 090°08'1 1.9
2018-Feb-21 18:31N 38°51' W 090°07'1 2.1
2018-Feb-21 17:59N 38°50' W 090°07'1 2.7
2018-Feb-21 17:30N 38°49' W 090°07'2 3.3
2018-Feb-21 17:00N 38°47' W 090°07'1 1.3
2018-Feb-21 16:30N 38°46' W 090°08'2 3.1
2018-Feb-21 16:00N 38°45' W 090°09'2 4.1
2018-Feb-21 15:30N 38°43' W 090°10'2 2.3
2018-Feb-21 14:50N 38°42' W 090°11'1 1.8
2018-Feb-21 14:31N 38°41' W 090°11'2 3.2
2018-Feb-21 14:00N 38°40' W 090°11'1 2.2
2018-Feb-21 13:30N 38°39' W 090°11'1 2.4
2018-Feb-21 13:01N 38°38' W 090°11'1 2.5
2018-Feb-21 12:29N 38°36' W 090°11'1 0.7
2018-Feb-21 11:02N 38°35' W 090°12'0 0.1
2018-Feb-21 10:55N 38°35' W 090°12'0 0.0
2018-Feb-21 10:25N 38°35' W 090°12'0 0.0
2018-Feb-21 09:58N 38°35' W 090°12'0 0.0
2018-Feb-21 03:06N 38°36' W 090°12'0 0.4
2018-Feb-21 02:39N 38°36' W 090°12'0 2.3
2018-Feb-21 02:29N 38°36' W 090°12'3 7.2
2018-Feb-21 02:00N 38°39' W 090°11'2 4.8
2018-Feb-21 01:31N 38°42' W 090°11'1 1.5
2018-Feb-21 01:00N 38°42' W 090°11'2 4.2
2018-Feb-21 00:31N 38°44' W 090°09'2 3.6
2018-Feb-20 23:59N 38°46' W 090°08'2 3.8
2018-Feb-20 23:30N 38°48' W 090°07'3 6.2
2018-Feb-20 23:01N 38°51' W 090°06'2 4.9
2018-Feb-20 22:31N 38°52' W 090°09'0 0.3
2018-Feb-20 21:57N 38°52' W 090°09'0 0.6
2018-Feb-20 21:31N 38°52' W 090°09'0 0.0
2018-Feb-20 21:01N 38°52' W 090°09'0 0.4
2018-Feb-20 20:31N 38°52' W 090°09'0 0.0
2018-Feb-20 20:01N 38°52' W 090°09'0 0.6
2018-Feb-20 19:30N 38°52' W 090°10'2 4.6
2018-Feb-20 19:00N 38°54' W 090°12'3 5.1
2018-Feb-20 18:31N 38°55' W 090°15'3 5.0
2018-Feb-20 18:01N 38°55' W 090°18'2 4.8
2018-Feb-20 17:31N 38°56' W 090°21'3 5.2
2018-Feb-20 17:01N 38°58' W 090°24'3 5.0
2018-Feb-20 16:30N 38°57' W 090°27'2 4.8
2018-Feb-20 16:01N 38°56' W 090°29'3 5.1
2018-Feb-20 15:31N 38°54' W 090°31'3 5.1
2018-Feb-20 15:01N 38°52' W 090°33'3 5.2
2018-Feb-20 14:30N 38°52' W 090°37'3 5.3
2018-Feb-20 14:00N 38°55' W 090°39'3 5.4
2018-Feb-20 13:30N 38°57' W 090°40'3 5.4
2018-Feb-20 13:00N 38°60' W 090°41'1 1.4
2018-Feb-20 12:30N 39°00' W 090°41'1 2.6
2018-Feb-20 12:01N 39°01' W 090°42'2 4.8
2018-Feb-20 11:30N 39°04' W 090°42'3 4.2
2018-Feb-20 10:53N 39°06' W 090°41'2 5.4
2018-Feb-20 10:31N 39°08' W 090°42'2 0.0
2018-Feb-19 00:29N 39°10' W 090°43'2 4.9
2018-Feb-19 00:00N 39°07' W 090°42'3 4.9
2018-Feb-18 23:28N 39°05' W 090°41'2 4.0
2018-Feb-18 23:00N 39°03' W 090°43'3 5.6
2018-Feb-18 22:31N 39°01' W 090°42'1 2.5
2018-Feb-18 22:01N 38°60' W 090°41'2 4.8
2018-Feb-18 21:30N 38°57' W 090°40'2 4.6
2018-Feb-18 21:01N 38°55' W 090°39'2 4.4
2018-Feb-18 20:31N 38°53' W 090°38'2 4.4
2018-Feb-18 20:00N 38°52' W 090°35'2 4.7
2018-Feb-18 19:31N 38°53' W 090°32'2 4.7
2018-Feb-18 19:00N 38°55' W 090°31'2 4.7
2018-Feb-18 18:30N 38°56' W 090°29'2 4.2
2018-Feb-18 18:01N 38°57' W 090°27'2 4.7
2018-Feb-18 17:30N 38°58' W 090°24'2 5.0
2018-Feb-18 17:01N 38°57' W 090°21'3 5.0
2018-Feb-18 16:31N 38°55' W 090°18'3 5.2
2018-Feb-18 16:01N 38°55' W 090°15'3 5.2
2018-Feb-18 15:30N 38°54' W 090°12'3 5.2
2018-Feb-18 15:01N 38°52' W 090°09'1 1.3
2018-Feb-18 14:31N 38°52' W 090°09'0 0.9
2018-Feb-18 14:01N 38°52' W 090°08'0 0.0
2018-Feb-18 13:30N 38°52' W 090°08'0 0.0
2018-Feb-18 13:00N 38°52' W 090°08'0 0.0
2018-Feb-18 12:31N 38°52' W 090°08'0 0.0
2018-Feb-18 12:01N 38°52' W 090°08'0 0.0
2018-Feb-18 11:30N 38°52' W 090°08'0 0.0
2018-Feb-18 11:01N 38°52' W 090°08'0 0.0
2018-Feb-18 10:30N 38°52' W 090°08'0 0.0
2018-Feb-18 10:01N 38°52' W 090°08'0 0.0
2018-Feb-18 09:31N 38°52' W 090°08'0 0.0
2018-Feb-18 09:00N 38°52' W 090°08'0 0.0
2018-Feb-18 08:31N 38°52' W 090°08'0 0.0
2018-Feb-18 08:00N 38°52' W 090°08'0 0.3
2018-Feb-18 07:31N 38°52' W 090°08'2 4.2
2018-Feb-18 07:01N 38°50' W 090°07'3 5.0
2018-Feb-18 06:30N 38°48' W 090°07'3 6.0
2018-Feb-18 06:00N 38°45' W 090°09'2 4.9
2018-Feb-18 05:31N 38°43' W 090°10'1 1.3
2018-Feb-18 05:00N 38°42' W 090°11'1 1.6
2018-Feb-18 04:30N 38°41' W 090°11'2 4.6
2018-Feb-18 04:01N 38°39' W 090°11'2 4.1
2018-Feb-18 03:30N 38°37' W 090°11'6 1.7
2018-Feb-18 00:15N 38°33' W 090°15'3 6.8
2018-Feb-17 23:48N 38°35' W 090°13'1 2.7
2018-Feb-17 23:30N 38°36' W 090°12'0 0.1
2018-Feb-17 23:00N 38°36' W 090°12'2 5.0
2018-Feb-17 22:30N 38°38' W 090°11'3 6.5
2018-Feb-17 22:01N 38°41' W 090°11'1 2.0
2018-Feb-17 21:25N 38°42' W 090°11'1 3.0
2018-Feb-17 21:00N 38°43' W 090°10'2 4.5
2018-Feb-17 20:31N 38°45' W 090°09'2 3.8
2018-Feb-17 20:01N 38°47' W 090°08'2 4.9
2018-Feb-17 19:31N 38°49' W 090°07'2 4.7
2018-Feb-17 19:00N 38°51' W 090°08'1 2.4
2018-Feb-17 18:31N 38°52' W 090°09'0 0.2
2018-Feb-17 18:00N 38°52' W 090°09'0 0.4
2018-Feb-17 17:31N 38°52' W 090°09'0 0.5
2018-Feb-17 17:00N 38°52' W 090°09'2 3.0
2018-Feb-17 16:31N 38°53' W 090°11'0 0.0
2018-Feb-17 16:01N 38°53' W 090°11'0 0.0
2018-Feb-17 15:31N 38°53' W 090°11'0 0.0
2018-Feb-17 15:01N 38°53' W 090°11'0 0.1
2018-Feb-17 14:31N 38°53' W 090°11'2 3.4
2018-Feb-17 14:01N 38°54' W 090°13'2 4.9
2018-Feb-17 13:31N 38°55' W 090°15'2 4.9
2018-Feb-17 13:01N 38°55' W 090°19'2 4.7
2018-Feb-17 12:31N 38°57' W 090°21'3 5.0
2018-Feb-17 12:01N 38°58' W 090°24'2 4.6
2018-Feb-17 11:31N 38°57' W 090°27'2 4.4
2018-Feb-17 11:01N 38°56' W 090°29'3 5.8
2018-Feb-17 10:31N 38°54' W 090°31'3 5.6
2018-Feb-17 10:00N 38°52' W 090°34'3 5.4
2018-Feb-17 09:31N 38°53' W 090°38'3 6.1
2018-Feb-17 09:01N 38°56' W 090°40'3 6.4
2018-Feb-17 08:31N 38°59' W 090°41'2 3.1
2018-Feb-17 08:01N 39°00' W 090°41'0 0.7
2018-Feb-17 07:30N 39°01' W 090°42'2 4.4
2018-Feb-17 07:01N 39°03' W 090°43'2 4.8
2018-Feb-17 06:30N 39°05' W 090°41'2 4.7
2018-Feb-17 06:00N 39°07' W 090°41'3 5.1
2018-Feb-17 05:31N 39°09' W 090°43'  
2018-Feb-14 18:26N 39°10' W 090°43'2 4.0
2018-Feb-14 18:00N 39°08' W 090°42'2 3.4
2018-Feb-14 17:28N 39°06' W 090°41'1 2.5
2018-Feb-14 17:00N 39°05' W 090°41'2 4.0
2018-Feb-14 16:31N 39°04' W 090°43'2 4.0
2018-Feb-14 16:01N 39°02' W 090°42'2 3.3
2018-Feb-14 15:31N 39°00' W 090°41'1 2.9
2018-Feb-14 15:00N 38°59' W 090°40'2 4.8
2018-Feb-14 14:30N 38°56' W 090°40'2 4.5
2018-Feb-14 14:00N 38°55' W 090°38'2 3.8
2018-Feb-14 13:31N 38°53' W 090°37'0 0.1
2018-Feb-14 13:01N 38°53' W 090°37'0 0.0
2018-Feb-14 12:31N 38°53' W 090°37'0 0.0
2018-Feb-14 12:01N 38°53' W 090°37'0 0.0
2018-Feb-14 11:31N 38°53' W 090°37'1 1.8
2018-Feb-14 11:01N 38°52' W 090°37'2 4.7
2018-Feb-14 10:31N 38°52' W 090°34'2 4.7
2018-Feb-14 10:00N 38°54' W 090°31'2 4.9
2018-Feb-14 09:31N 38°56' W 090°30'3 4.9
2018-Feb-14 09:00N 38°57' W 090°27'3 5.2
2018-Feb-14 08:31N 38°58' W 090°24'3 5.5
2018-Feb-14 08:00N 38°56' W 090°21'3 5.4
2018-Feb-14 07:31N 38°55' W 090°18'3 5.4
2018-Feb-14 07:00N 38°55' W 090°14'3 5.4
2018-Feb-14 06:30N 38°53' W 090°11'2 4.3
2018-Feb-14 06:01N 38°52' W 090°09'0 1.0
2018-Feb-14 05:31N 38°52' W 090°08'0 1.0
2018-Feb-14 05:01N 38°52' W 090°08'0 0.0
2018-Feb-14 04:31N 38°52' W 090°08'0 0.0
2018-Feb-14 04:01N 38°52' W 090°08'0 0.0
2018-Feb-14 03:31N 38°52' W 090°08'2 3.7
2018-Feb-14 02:59N 38°50' W 090°06'2 4.7
2018-Feb-14 02:31N 38°48' W 090°07'2 4.6
2018-Feb-14 01:59N 38°46' W 090°08'2 4.3
2018-Feb-14 01:30N 38°44' W 090°10'2 3.9
2018-Feb-14 01:01N 38°42' W 090°11'1 1.2
2018-Feb-14 00:31N 38°42' W 090°11'2 4.2
2018-Feb-14 00:01N 38°40' W 090°11'0 0.1
2018-Feb-13 23:26N 38°40' W 090°11'1 1.6
2018-Feb-13 23:00N 38°39' W 090°11'2 2.7
2018-Feb-13 22:23N 38°37' W 090°11'2 0.5
2018-Feb-13 17:53N 38°35' W 090°12'0 0.0
2018-Feb-13 17:18N 38°35' W 090°12'0 0.0
2018-Feb-13 16:52N 38°35' W 090°12'0 0.0
2018-Feb-13 16:24N 38°35' W 090°12'5 0.9
2018-Feb-13 10:38N 38°31' W 090°16'2 3.2
2018-Feb-13 10:10N 38°33' W 090°15'3 8.3
2018-Feb-13 09:46N 38°35' W 090°12'2 7.2
2018-Feb-13 09:28N 38°37' W 090°11'0 0.2
2018-Feb-13 08:55N 38°37' W 090°11'2 1.6
2018-Feb-13 07:57N 38°39' W 090°11'0 0.0
2018-Feb-13 07:04N 38°39' W 090°11'0 0.0
2018-Feb-13 07:00N 38°39' W 090°11'0 0.1
2018-Feb-13 06:26N 38°39' W 090°11'1 3.4
2018-Feb-13 06:01N 38°40' W 090°11'2 4.0
2018-Feb-13 05:30N 38°42' W 090°11'1 1.9
2018-Feb-13 05:00N 38°43' W 090°10'2 4.3
2018-Feb-13 04:31N 38°45' W 090°09'2 4.1
2018-Feb-13 04:00N 38°46' W 090°08'2 4.9
2018-Feb-13 03:31N 38°49' W 090°07'3 5.1
2018-Feb-13 03:01N 38°51' W 090°07'2 3.4
2018-Feb-13 02:30N 38°52' W 090°09'1 2.9
2018-Feb-13 02:00N 38°53' W 090°11'1 1.2
2018-Feb-13 01:31N 38°53' W 090°10'1 1.4
2018-Feb-13 01:01N 38°52' W 090°09'0 0.2
2018-Feb-13 00:30N 38°52' W 090°09'2 3.6
2018-Feb-13 00:01N 38°53' W 090°11'0 0.0
2018-Feb-12 23:31N 38°53' W 090°11'0 0.0
2018-Feb-12 23:01N 38°53' W 090°11'0 0.0
2018-Feb-12 22:31N 38°53' W 090°11'2 3.1
2018-Feb-12 22:01N 38°54' W 090°13'3 5.7
2018-Feb-12 21:31N 38°55' W 090°16'3 5.5
2018-Feb-12 21:00N 38°56' W 090°19'3 5.7
2018-Feb-12 20:31N 38°57' W 090°22'3 5.7
2018-Feb-12 20:00N 38°58' W 090°26'2 4.8
2018-Feb-12 19:31N 38°57' W 090°29'3 5.0
2018-Feb-12 19:01N 38°55' W 090°31'3 5.1
2018-Feb-12 18:31N 38°52' W 090°33'2 4.8
2018-Feb-12 18:00N 38°52' W 090°36'2 4.8
2018-Feb-12 17:30N 38°54' W 090°38'3 5.1
2018-Feb-12 17:00N 38°56' W 090°40'3 5.7
2018-Feb-12 16:30N 38°59' W 090°40'2 3.4
2018-Feb-12 16:01N 39°00' W 090°41'1 2.9
2018-Feb-12 15:30N 39°02' W 090°42'2 4.8
2018-Feb-12 15:00N 39°04' W 090°42'2 2.1
2018-Feb-12 14:06N 39°05' W 090°41'0 0.7
2018-Feb-12 13:58N 39°05' W 090°41'1 2.3
2018-Feb-12 13:31N 39°06' W 090°41'  

Dump ship's entire track history